createdAt,value
2018-12-08T00:00:29.485Z,82.60
2018-12-08T00:02:59.523Z,79.70
2018-12-08T00:05:28.713Z,80.30
2018-12-08T00:07:57.979Z,77.40
2018-12-08T00:10:27.959Z,77.70
2018-12-08T00:12:57.364Z,77.30
2018-12-08T00:15:26.425Z,77.30
2018-12-08T00:17:56.250Z,78.40
2018-12-08T00:20:25.958Z,78.70
2018-12-08T00:22:54.913Z,79.00
2018-12-08T00:25:23.898Z,79.50
2018-12-08T00:27:52.878Z,79.90
2018-12-08T00:30:33.200Z,79.70
2018-12-08T00:33:02.161Z,79.80
2018-12-08T00:35:31.629Z,79.70
2018-12-08T00:38:00.581Z,80.40
2018-12-08T00:40:30.059Z,80.60
2018-12-08T00:42:59.086Z,81.60
2018-12-08T00:45:28.172Z,81.90
2018-12-08T00:47:57.184Z,82.30
2018-12-08T00:50:26.262Z,82.00
2018-12-08T00:52:55.280Z,82.40
2018-12-08T00:55:24.341Z,82.30
2018-12-08T00:57:53.296Z,82.50
2018-12-08T01:00:23.186Z,82.40
2018-12-08T01:02:52.140Z,82.50
2018-12-08T01:05:21.128Z,82.30
2018-12-08T01:07:50.103Z,82.50
2018-12-08T01:10:19.166Z,82.40
2018-12-08T01:12:48.122Z,82.30
2018-12-08T01:15:17.077Z,82.10
2018-12-08T01:17:46.100Z,82.00
2018-12-08T01:20:15.064Z,81.70
2018-12-08T01:22:44.020Z,81.90
2018-12-08T01:25:13.053Z,82.00
2018-12-08T01:27:42.008Z,82.70
2018-12-08T01:30:11.070Z,82.50
2018-12-08T01:32:40.031Z,83.70
2018-12-08T01:35:09.040Z,83.10
2018-12-08T01:37:38.052Z,83.30
2018-12-08T01:40:07.162Z,83.80
2018-12-08T01:42:36.342Z,83.80
2018-12-08T01:45:06.422Z,84.00
2018-12-08T01:47:35.564Z,84.30
2018-12-08T01:50:05.346Z,84.60
2018-12-08T01:52:34.310Z,84.60
2018-12-08T01:55:03.260Z,85.10
2018-12-08T01:57:32.279Z,85.10
2018-12-08T02:00:01.252Z,85.30
2018-12-08T02:02:30.206Z,85.40
2018-12-08T02:04:59.174Z,85.50
2018-12-08T02:07:28.143Z,85.30
2018-12-08T02:09:57.114Z,85.30
2018-12-08T02:12:26.093Z,85.10
2018-12-08T02:14:55.059Z,84.90
2018-12-08T02:17:24.014Z,85.00
2018-12-08T02:19:52.970Z,85.10
2018-12-08T02:22:21.938Z,85.20
2018-12-08T02:24:50.956Z,85.30
2018-12-08T02:27:19.923Z,85.10
2018-12-08T02:29:48.880Z,85.40
2018-12-08T02:32:17.932Z,85.50
2018-12-08T02:34:46.393Z,85.80
2018-12-08T02:37:14.808Z,86.80
2018-12-08T02:39:43.191Z,86.30
2018-12-08T02:42:12.170Z,86.70
2018-12-08T02:44:40.668Z,86.80
2018-12-08T02:47:09.647Z,87.20
2018-12-08T02:49:38.045Z,87.30
2018-12-08T02:52:07.027Z,87.90
2018-12-08T02:54:35.984Z,87.90
2018-12-08T02:57:04.379Z,87.90
2018-12-08T02:59:33.326Z,88.00
2018-12-08T03:02:01.765Z,88.10
2018-12-08T03:04:30.245Z,88.10
2018-12-08T03:06:59.219Z,88.30
2018-12-08T03:09:28.177Z,88.20
2018-12-08T03:11:56.608Z,88.10
2018-12-08T03:14:25.088Z,88.10
2018-12-08T03:16:54.392Z,88.10
2018-12-08T03:19:23.361Z,88.10
2018-12-08T03:21:51.744Z,88.10
2018-12-08T03:24:20.708Z,88.00
2018-12-08T03:26:49.639Z,87.80
2018-12-08T03:29:18.132Z,87.80
2018-12-08T03:31:46.604Z,87.80
2018-12-08T03:34:15.566Z,87.60
2018-12-08T03:36:44.491Z,87.60
2018-12-08T03:39:13.611Z,87.70
2018-12-08T03:41:42.887Z,87.60
2018-12-08T03:44:11.298Z,87.40
2018-12-08T03:46:40.230Z,87.30
2018-12-08T03:49:09.241Z,87.10
2018-12-08T03:51:37.631Z,87.00
2018-12-08T03:54:06.728Z,86.90
2018-12-08T03:56:35.110Z,86.90
2018-12-08T03:59:04.806Z,86.80
2018-12-08T04:01:33.190Z,86.60
2018-12-08T04:04:01.673Z,86.50
2018-12-08T04:06:30.361Z,86.50
2018-12-08T04:08:59.460Z,86.50
2018-12-08T04:11:27.931Z,86.50
2018-12-08T04:13:56.361Z,86.50
2018-12-08T04:16:24.734Z,86.80
2018-12-08T04:18:53.294Z,86.60
2018-12-08T04:21:22.248Z,86.70
2018-12-08T04:23:50.949Z,86.70
2018-12-08T04:26:19.434Z,86.70
2018-12-08T04:28:48.070Z,86.70
2018-12-08T04:31:16.711Z,87.10
2018-12-08T04:33:45.116Z,87.20
2018-12-08T04:36:13.504Z,87.20
2018-12-08T04:38:41.909Z,87.40
2018-12-08T04:41:10.380Z,87.40
2018-12-08T04:43:41.388Z,87.60
2018-12-08T04:46:09.771Z,87.60
2018-12-08T04:48:38.630Z,87.70
2018-12-08T04:51:07.129Z,87.90
2018-12-08T04:53:35.792Z,87.80
2018-12-08T04:56:04.438Z,87.70
2018-12-08T04:58:32.853Z,87.70
2018-12-08T05:01:01.239Z,87.50
2018-12-08T05:03:29.643Z,87.60
2018-12-08T05:05:58.079Z,87.60
2018-12-08T05:08:26.477Z,87.50
2018-12-08T05:10:54.889Z,87.50
2018-12-08T05:13:23.306Z,87.20
2018-12-08T05:15:51.746Z,86.90
2018-12-08T05:18:20.199Z,86.60
2018-12-08T05:20:48.687Z,86.50
2018-12-08T05:23:17.086Z,86.40
2018-12-08T05:25:45.485Z,86.40
2018-12-08T05:28:13.874Z,86.40
2018-12-08T05:30:42.299Z,86.10
2018-12-08T05:33:10.783Z,86.00
2018-12-08T05:35:39.257Z,86.00
2018-12-08T05:38:07.711Z,86.00
2018-12-08T05:40:36.115Z,86.00
2018-12-08T05:43:05.454Z,86.10
2018-12-08T05:45:33.894Z,86.20
2018-12-08T05:48:02.287Z,86.40
2018-12-08T05:50:30.754Z,86.40
2018-12-08T05:53:00.068Z,86.60
2018-12-08T05:55:29.007Z,86.70
2018-12-08T05:57:57.411Z,86.90
2018-12-08T06:00:25.813Z,86.80
2018-12-08T06:02:54.209Z,86.60
2018-12-08T06:05:22.673Z,86.50
2018-12-08T06:07:51.150Z,86.50
2018-12-08T06:10:19.621Z,86.50
2018-12-08T06:12:48.121Z,86.60
2018-12-08T06:15:16.538Z,86.50
2018-12-08T06:17:44.995Z,86.50
2018-12-08T06:20:13.449Z,86.40
2018-12-08T06:22:41.840Z,86.20
2018-12-08T06:25:13.248Z,86.40
2018-12-08T06:27:44.921Z,86.40
2018-12-08T06:30:13.422Z,86.40
2018-12-08T06:32:41.814Z,86.40
2018-12-08T06:35:10.235Z,87.40
2018-12-08T06:37:38.651Z,86.70
2018-12-08T06:40:07.547Z,86.70
2018-12-08T06:42:35.999Z,86.90
2018-12-08T06:45:05.217Z,86.80
2018-12-08T06:47:33.614Z,86.80
2018-12-08T06:50:02.007Z,86.90
2018-12-08T06:52:30.397Z,87.00
2018-12-08T06:54:58.788Z,87.00
2018-12-08T06:57:27.318Z,87.00
2018-12-08T06:59:56.245Z,86.80
2018-12-08T07:02:24.695Z,86.70
2018-12-08T07:04:54.005Z,86.70
2018-12-08T07:07:22.484Z,86.70
2018-12-08T07:09:50.883Z,86.70
2018-12-08T07:12:19.405Z,86.70
2018-12-08T07:14:47.876Z,86.70
2018-12-08T07:17:16.702Z,86.60
2018-12-08T07:19:45.104Z,86.40
2018-12-08T07:22:13.506Z,86.20
2018-12-08T07:24:41.899Z,86.20
2018-12-08T07:27:10.345Z,86.20
2018-12-08T07:29:38.728Z,86.00
2018-12-08T07:32:07.198Z,85.90
2018-12-08T07:34:35.595Z,85.50
2018-12-08T07:37:04.143Z,86.00
2018-12-08T07:39:32.538Z,84.90
2018-12-08T07:42:01.032Z,84.70
2018-12-08T07:44:29.406Z,85.00
2018-12-08T07:46:58.365Z,83.90
2018-12-08T07:49:27.358Z,83.60
2018-12-08T07:51:55.848Z,83.30
2018-12-08T07:54:24.261Z,82.80
2018-12-08T07:56:52.811Z,82.30
2018-12-08T07:59:21.814Z,82.00
2018-12-08T08:01:50.213Z,81.30
2018-12-08T08:04:19.190Z,80.70
2018-12-08T08:06:48.184Z,80.50
2018-12-08T08:09:17.209Z,79.80
2018-12-08T08:11:46.170Z,79.10
2018-12-08T08:14:15.139Z,78.70
2018-12-08T08:16:44.113Z,78.70
2018-12-08T08:19:13.070Z,78.10
2018-12-08T08:21:42.131Z,78.00
2018-12-08T08:24:10.534Z,78.30
2018-12-08T08:26:39.482Z,78.00
2018-12-08T08:29:08.521Z,77.10
2018-12-08T08:31:37.468Z,77.30
2018-12-08T08:34:06.483Z,77.00
2018-12-08T08:36:35.442Z,76.30
2018-12-08T08:39:06.622Z,76.10
2018-12-08T08:41:35.619Z,76.10
2018-12-08T08:44:04.712Z,75.80
2018-12-08T08:46:33.796Z,75.90
2018-12-08T08:49:02.775Z,76.10
2018-12-08T08:51:31.746Z,76.10
2018-12-08T08:54:00.781Z,76.00
2018-12-08T08:56:29.755Z,76.10
2018-12-08T08:58:58.737Z,75.90
2018-12-08T09:01:27.792Z,76.00
2018-12-08T09:03:56.771Z,75.90
2018-12-08T09:06:25.732Z,75.70
2018-12-08T09:08:54.712Z,75.50
2018-12-08T09:11:23.682Z,75.60
2018-12-08T09:13:52.854Z,75.60
2018-12-08T09:16:21.845Z,75.90
2018-12-08T09:18:51.154Z,75.80
2018-12-08T09:21:20.119Z,75.80
2018-12-08T09:23:49.108Z,76.00
2018-12-08T09:26:18.132Z,75.80
2018-12-08T09:28:47.114Z,75.80
2018-12-08T09:31:16.116Z,76.00
2018-12-08T09:33:45.075Z,75.80
2018-12-08T09:36:14.068Z,75.80
2018-12-08T09:38:43.166Z,75.70
2018-12-08T09:41:12.127Z,75.70
2018-12-08T09:43:41.186Z,75.70
2018-12-08T09:46:10.133Z,75.20
2018-12-08T09:48:39.138Z,75.10
2018-12-08T09:51:08.163Z,75.00
2018-12-08T09:53:37.124Z,75.00
2018-12-08T09:56:06.117Z,74.90
2018-12-08T09:58:35.211Z,74.50
2018-12-08T10:01:04.525Z,74.70
2018-12-08T10:03:33.997Z,74.70
2018-12-08T10:06:02.939Z,74.20
2018-12-08T10:08:31.905Z,74.20
2018-12-08T10:11:00.897Z,73.80
2018-12-08T10:13:29.852Z,73.30
2018-12-08T10:15:58.875Z,73.40
2018-12-08T10:18:27.852Z,73.20
2018-12-08T10:20:56.837Z,73.00
2018-12-08T10:23:25.794Z,73.00
2018-12-08T10:25:54.857Z,73.20
2018-12-08T10:28:23.808Z,73.40
2018-12-08T10:30:52.848Z,73.30
2018-12-08T10:33:21.926Z,72.50
2018-12-08T10:35:50.929Z,72.50
2018-12-08T10:38:19.950Z,72.70
2018-12-08T10:40:49.046Z,73.00
2018-12-08T10:43:18.004Z,72.90
2018-12-08T10:45:47.004Z,73.00
2018-12-08T10:48:16.018Z,73.00
2018-12-08T10:50:45.100Z,72.00
2018-12-08T10:53:14.095Z,72.10
2018-12-08T10:55:43.090Z,72.40
2018-12-08T10:58:12.048Z,71.90
2018-12-08T11:00:46.445Z,72.30
2018-12-08T11:03:30.023Z,72.10
2018-12-08T11:05:59.018Z,71.60
2018-12-08T11:08:27.976Z,71.70
2018-12-08T11:10:56.996Z,71.90
2018-12-08T11:13:26.022Z,71.40
2018-12-08T11:15:55.152Z,71.50
2018-12-08T11:18:24.098Z,71.70
2018-12-08T11:20:53.180Z,72.00
2018-12-08T11:23:22.172Z,72.30
2018-12-08T11:25:51.139Z,71.80
2018-12-08T11:28:20.098Z,71.20
2018-12-08T11:30:49.125Z,70.70
2018-12-08T11:33:18.379Z,70.30
2018-12-08T11:35:47.445Z,70.20
2018-12-08T11:38:16.759Z,70.30
2018-12-08T11:40:45.758Z,69.80
2018-12-08T11:43:14.764Z,69.80
2018-12-08T11:45:43.824Z,69.70
2018-12-08T11:48:12.892Z,70.00
2018-12-08T11:50:41.934Z,69.50
2018-12-08T11:53:11.042Z,70.00
2018-12-08T11:55:40.318Z,69.50
2018-12-08T11:58:10.111Z,69.60
2018-12-08T12:00:39.555Z,69.60
2018-12-08T12:03:08.622Z,69.50
2018-12-08T12:05:37.568Z,68.90
2018-12-08T12:08:06.770Z,68.90
2018-12-08T12:10:35.748Z,68.70
2018-12-08T12:13:04.745Z,68.80
2018-12-08T12:15:33.716Z,69.50
2018-12-08T12:18:02.883Z,69.50
2018-12-08T12:20:31.844Z,69.70
2018-12-08T12:23:00.899Z,69.30
2018-12-08T12:25:30.328Z,69.30
2018-12-08T12:27:59.916Z,68.70
2018-12-08T12:30:29.009Z,68.10
2018-12-08T12:32:58.283Z,67.80
2018-12-08T12:35:27.237Z,68.10
2018-12-08T12:37:56.258Z,68.60
2018-12-08T12:40:25.220Z,68.80
2018-12-08T12:42:54.191Z,69.30
2018-12-08T12:45:23.262Z,69.40
2018-12-08T12:47:52.681Z,70.30
2018-12-08T12:50:21.752Z,69.60
2018-12-08T12:52:50.742Z,69.70
2018-12-08T12:55:19.820Z,70.00
2018-12-08T12:57:48.819Z,70.10
2018-12-08T13:00:17.923Z,70.30
2018-12-08T13:02:46.922Z,70.10
2018-12-08T13:05:16.072Z,70.40
2018-12-08T13:07:45.131Z,70.70
2018-12-08T13:10:14.082Z,70.50
2018-12-08T13:12:43.115Z,71.50
2018-12-08T13:15:12.134Z,71.10
2018-12-08T13:17:41.181Z,71.10
2018-12-08T13:20:10.201Z,71.50
2018-12-08T13:22:39.177Z,71.50
2018-12-08T13:25:18.004Z,71.20
2018-12-08T13:27:46.979Z,71.20
2018-12-08T13:30:15.945Z,71.40
2018-12-08T13:32:44.982Z,71.70
2018-12-08T13:38:19.643Z,71.80
2018-12-08T13:40:48.607Z,71.90
2018-12-08T13:43:17.660Z,72.00
2018-12-08T13:45:46.717Z,72.10
2018-12-08T13:48:16.482Z,72.40
2018-12-08T13:50:45.594Z,72.70
2018-12-08T13:53:14.590Z,73.50
2018-12-08T13:55:43.555Z,75.40
2018-12-08T13:58:12.522Z,77.10
2018-12-08T14:00:41.502Z,78.30
2018-12-08T14:03:10.501Z,78.90
2018-12-08T14:05:39.503Z,79.20
2018-12-08T14:08:08.495Z,79.60
2018-12-08T14:10:37.476Z,79.80
2018-12-08T14:13:07.063Z,80.00
2018-12-08T14:15:36.056Z,80.00
2018-12-08T14:18:05.646Z,79.70
2018-12-08T14:20:34.679Z,79.40
2018-12-08T14:23:03.631Z,79.40
2018-12-08T14:25:32.650Z,79.40
2018-12-08T14:28:01.622Z,79.80
2018-12-08T14:30:31.429Z,79.70
2018-12-08T14:33:00.403Z,79.60
2018-12-08T14:35:29.367Z,79.60
2018-12-08T14:37:58.331Z,79.60
2018-12-08T14:40:27.309Z,79.80
2018-12-08T14:42:56.302Z,79.70
2018-12-08T14:45:25.336Z,79.80
2018-12-08T14:47:54.321Z,79.80
2018-12-08T14:50:23.301Z,80.10
2018-12-08T14:52:52.269Z,80.20
2018-12-08T14:55:21.259Z,80.10
2018-12-08T14:57:50.239Z,80.00
2018-12-08T15:00:19.236Z,79.90
2018-12-08T15:02:48.229Z,79.90
2018-12-08T15:05:17.219Z,79.90
2018-12-08T15:07:46.227Z,80.10
2018-12-08T15:10:15.182Z,80.20
2018-12-08T15:12:44.152Z,80.20
2018-12-08T15:15:13.214Z,80.30
2018-12-08T15:17:42.174Z,80.40
2018-12-08T15:20:11.216Z,80.40
2018-12-08T15:22:40.194Z,80.40
2018-12-08T15:25:09.248Z,80.40
2018-12-08T15:27:38.338Z,80.40
2018-12-08T15:30:07.496Z,80.50
2018-12-08T15:32:36.514Z,80.40
2018-12-08T15:35:07.500Z,80.20
2018-12-08T15:37:36.533Z,80.30
2018-12-08T15:40:06.727Z,80.30
2018-12-08T15:42:35.688Z,80.20
2018-12-08T15:45:06.580Z,80.20
2018-12-08T15:47:35.544Z,80.20
2018-12-08T15:50:06.452Z,80.30
2018-12-08T15:52:35.731Z,80.00
2018-12-08T15:55:04.882Z,80.10
2018-12-08T15:57:34.516Z,80.00
2018-12-08T16:00:05.439Z,80.10
2018-12-08T16:02:34.815Z,80.20
2018-12-08T16:05:04.457Z,80.10
2018-12-08T16:07:33.465Z,80.20
2018-12-08T16:10:02.592Z,80.20
2018-12-08T16:12:31.582Z,80.40
2018-12-08T16:15:00.603Z,80.40
2018-12-08T16:17:29.641Z,80.80
2018-12-08T16:19:58.699Z,80.90
2018-12-08T16:22:28.209Z,80.70
2018-12-08T16:24:57.280Z,81.20
2018-12-08T16:27:26.263Z,81.70
2018-12-08T16:29:55.204Z,82.00
2018-12-08T16:32:24.251Z,82.40
2018-12-08T16:34:53.407Z,82.60
2018-12-08T16:37:22.471Z,82.60
2018-12-08T16:39:51.450Z,82.50
2018-12-08T16:42:20.435Z,83.20
2018-12-08T16:44:49.416Z,83.60
2018-12-08T16:47:18.398Z,83.50
2018-12-08T16:49:47.370Z,83.70
2018-12-08T16:52:16.424Z,83.70
2018-12-08T16:54:45.382Z,84.00
2018-12-08T16:57:14.378Z,83.70
2018-12-08T16:59:43.364Z,83.40
2018-12-08T17:02:12.415Z,83.40
2018-12-08T17:04:41.368Z,83.50
2018-12-08T17:07:10.508Z,83.20
2018-12-08T17:09:39.478Z,82.70
2018-12-08T17:12:08.581Z,81.70
2018-12-08T17:14:37.564Z,81.90
2018-12-08T17:17:06.610Z,81.00
2018-12-08T17:19:35.692Z,81.20
2018-12-08T17:22:04.771Z,81.70
2018-12-08T17:24:33.736Z,80.70
2018-12-08T17:27:02.712Z,80.50
2018-12-08T17:29:31.757Z,80.50
2018-12-08T17:32:00.927Z,80.00
2018-12-08T17:34:29.899Z,80.00
2018-12-08T17:36:58.921Z,79.90
2018-12-08T17:39:27.897Z,79.90
2018-12-08T17:41:56.909Z,80.20
2018-12-08T17:44:25.881Z,80.00
2018-12-08T17:46:54.849Z,80.20
2018-12-08T17:49:23.831Z,80.00
2018-12-08T17:51:52.850Z,79.80
2018-12-08T17:54:21.876Z,79.90
2018-12-08T17:56:50.853Z,79.80
2018-12-08T17:59:19.894Z,79.50
2018-12-08T18:01:48.917Z,79.50
2018-12-08T18:04:17.907Z,80.20
2018-12-08T18:06:46.912Z,79.50
2018-12-08T18:09:15.987Z,79.50
2018-12-08T18:11:44.931Z,79.80
2018-12-08T18:14:13.948Z,80.40
2018-12-08T18:16:42.907Z,80.40
2018-12-08T18:19:11.938Z,80.70
2018-12-08T18:21:41.031Z,81.00
2018-12-08T18:24:10.275Z,81.50
2018-12-08T18:26:39.253Z,81.70
2018-12-08T18:29:08.322Z,81.70
2018-12-08T18:31:37.322Z,81.90
2018-12-08T18:34:06.584Z,81.50
2018-12-08T18:36:35.566Z,81.20
2018-12-08T18:39:06.573Z,81.00
2018-12-08T18:41:35.527Z,80.70
2018-12-08T18:44:04.623Z,80.90
2018-12-08T18:46:33.592Z,81.10
2018-12-08T18:49:02.586Z,81.10
2018-12-08T18:51:31.576Z,81.10
2018-12-08T18:54:00.556Z,81.20
2018-12-08T18:56:29.577Z,81.40
2018-12-08T18:58:58.568Z,81.50
2018-12-08T19:01:27.590Z,81.80
2018-12-08T19:03:56.576Z,82.00
2018-12-08T19:06:25.548Z,82.20
2018-12-08T19:08:54.508Z,82.40
2018-12-08T19:11:23.656Z,82.50
2018-12-08T19:13:52.648Z,82.60
2018-12-08T19:16:21.692Z,82.70
2018-12-08T19:18:50.731Z,83.00
2018-12-08T19:21:19.807Z,83.10
2018-12-08T19:23:48.810Z,83.30
2018-12-08T19:26:18.100Z,83.50
2018-12-08T19:28:47.047Z,83.60
2018-12-08T19:31:16.012Z,83.80
2018-12-08T19:33:45.002Z,84.10
2018-12-08T19:36:14.077Z,84.30
2018-12-08T19:38:43.084Z,84.30
2018-12-08T19:41:12.039Z,84.30
2018-12-08T19:43:41.014Z,84.50
2018-12-08T19:46:09.956Z,84.50
2018-12-08T19:48:39.013Z,84.60
2018-12-08T19:51:07.979Z,84.60
2018-12-08T19:53:36.977Z,84.60
2018-12-08T19:56:05.955Z,85.10
2018-12-08T19:58:34.970Z,85.00
2018-12-08T20:01:03.987Z,85.30
2018-12-08T20:03:32.972Z,85.30
2018-12-08T20:06:01.965Z,85.30
2018-12-08T20:08:30.357Z,85.30
2018-12-08T20:10:59.333Z,85.30
2018-12-08T20:13:28.315Z,85.60
2018-12-08T20:15:56.741Z,85.50
2018-12-08T20:18:25.743Z,85.80
2018-12-08T20:20:54.689Z,85.80
2018-12-08T20:23:23.656Z,86.10
2018-12-08T20:25:52.627Z,86.10
2018-12-08T20:28:21.599Z,86.30
2018-12-08T20:30:50.599Z,86.50
2018-12-08T20:33:19.564Z,86.50
2018-12-08T20:35:48.537Z,86.30
2018-12-08T20:38:17.558Z,86.50
2018-12-08T20:40:46.568Z,86.50
2018-12-08T20:43:15.055Z,86.60
2018-12-08T20:45:44.033Z,86.80
2018-12-08T20:48:12.998Z,86.80
2018-12-08T20:50:42.145Z,86.90
2018-12-08T20:53:11.103Z,87.00
2018-12-08T20:55:40.079Z,87.40
2018-12-08T20:58:09.117Z,87.30
2018-12-08T21:00:38.227Z,86.80
2018-12-08T21:03:07.209Z,86.20
2018-12-08T21:05:36.728Z,85.50
2018-12-08T21:08:05.726Z,85.20
2018-12-08T21:10:34.695Z,84.70
2018-12-08T21:13:03.698Z,84.40
2018-12-08T21:15:32.690Z,83.70
2018-12-08T21:18:01.750Z,83.40
2018-12-08T21:20:30.890Z,82.90
2018-12-08T21:22:59.852Z,82.90
2018-12-08T21:25:28.832Z,82.70
2018-12-08T21:27:57.826Z,82.60
2018-12-08T21:30:26.929Z,82.40
2018-12-08T21:32:55.891Z,82.30
2018-12-08T21:35:24.848Z,82.20
2018-12-08T21:37:53.901Z,82.20
2018-12-08T21:40:25.703Z,81.90
2018-12-08T21:42:54.957Z,81.90
2018-12-08T21:45:23.970Z,81.70
2018-12-08T21:47:52.936Z,81.50
2018-12-08T21:50:21.954Z,80.90
2018-12-08T21:52:50.943Z,80.90
2018-12-08T21:55:19.927Z,81.00
2018-12-08T21:57:48.888Z,80.90
2018-12-08T22:00:17.884Z,80.70
2018-12-08T22:02:47.026Z,80.70
2018-12-08T22:05:16.036Z,80.50
2018-12-08T22:07:44.998Z,80.70
2018-12-08T22:10:14.312Z,80.20
2018-12-08T22:12:43.316Z,80.00
2018-12-08T22:15:15.445Z,80.00
2018-12-08T22:17:44.844Z,80.10
2018-12-08T22:20:13.862Z,80.10
2018-12-08T22:22:42.866Z,80.10
2018-12-08T22:25:12.352Z,80.20
2018-12-08T22:27:41.360Z,80.50
2018-12-08T22:30:10.364Z,80.70
2018-12-08T22:32:39.464Z,80.70
2018-12-08T22:35:08.432Z,80.80
2018-12-08T22:37:37.403Z,80.30
2018-12-08T22:40:06.633Z,81.10
2018-12-08T22:42:35.626Z,81.20
2018-12-08T22:45:05.114Z,81.20
2018-12-08T22:47:34.211Z,81.20
2018-12-08T22:50:03.241Z,81.20
2018-12-08T22:52:32.319Z,81.20
2018-12-08T22:55:01.297Z,81.10
2018-12-08T22:57:30.287Z,81.20
2018-12-08T22:59:59.238Z,81.20
2018-12-08T23:02:28.375Z,81.20
2018-12-08T23:04:57.378Z,81.20
2018-12-08T23:07:26.362Z,81.20
2018-12-08T23:09:55.323Z,81.10
2018-12-08T23:12:24.740Z,81.20
2018-12-08T23:14:53.755Z,81.20
2018-12-08T23:17:22.763Z,81.10
2018-12-08T23:19:51.724Z,81.20
2018-12-08T23:22:20.693Z,81.50
2018-12-08T23:24:49.658Z,82.20
2018-12-08T23:27:18.615Z,82.70
2018-12-08T23:29:47.609Z,83.20
2018-12-08T23:32:16.584Z,83.60
2018-12-08T23:34:45.618Z,84.20
2018-12-08T23:37:14.649Z,84.90
2018-12-08T23:39:43.611Z,85.70
2018-12-08T23:42:12.571Z,86.90
2018-12-08T23:44:41.533Z,87.10
2018-12-08T23:47:11.172Z,87.40
2018-12-08T23:49:40.475Z,87.50
2018-12-08T23:52:09.434Z,88.20
2018-12-08T23:54:38.397Z,88.60
2018-12-08T23:57:07.367Z,89.30
2018-12-08T23:59:36.332Z,89.70
